createdAt,value
2019-03-29T00:01:32.428Z,6.86
2019-03-29T00:04:19.964Z,6.71
2019-03-29T00:07:08.255Z,6.76
2019-03-29T00:09:56.592Z,6.71
2019-03-29T00:12:44.967Z,6.75
2019-03-29T00:15:33.950Z,6.79
2019-03-29T00:18:22.149Z,6.76
2019-03-29T00:21:10.279Z,6.68
2019-03-29T00:24:06.614Z,6.73
2019-03-29T00:26:48.377Z,6.55
2019-03-29T00:29:36.486Z,6.44
2019-03-29T00:32:24.294Z,6.56
2019-03-29T00:35:12.179Z,6.56
2019-03-29T00:38:00.362Z,6.62
2019-03-29T00:40:48.358Z,6.54
2019-03-29T00:43:36.070Z,6.46
2019-03-29T00:46:24.430Z,6.38
2019-03-29T00:49:12.807Z,6.31
2019-03-29T00:52:00.805Z,6.27
2019-03-29T00:54:48.669Z,6.15
2019-03-29T00:57:37.334Z,6.01
2019-03-29T01:00:25.837Z,6.09
2019-03-29T01:03:14.175Z,6.12
2019-03-29T01:06:02.144Z,6.16
2019-03-29T01:08:50.129Z,6.07
2019-03-29T01:11:38.189Z,6.15
2019-03-29T01:14:26.688Z,6.10
2019-03-29T01:17:14.982Z,6.17
2019-03-29T01:20:03.210Z,6.10
2019-03-29T01:22:51.073Z,6.09
2019-03-29T01:25:39.426Z,6.05
2019-03-29T01:28:27.207Z,5.97
2019-03-29T01:31:15.171Z,5.95
2019-03-29T01:34:03.094Z,5.81
2019-03-29T01:36:51.320Z,5.80
2019-03-29T01:39:39.356Z,5.82
2019-03-29T01:42:27.309Z,5.80
2019-03-29T01:45:15.551Z,5.79
2019-03-29T01:48:03.735Z,5.71
2019-03-29T01:50:51.953Z,5.76
2019-03-29T01:53:39.938Z,5.75
2019-03-29T01:56:27.998Z,5.60
2019-03-29T01:59:16.974Z,5.63
2019-03-29T02:02:05.127Z,5.59
2019-03-29T02:04:53.195Z,5.54
2019-03-29T02:07:40.987Z,5.61
2019-03-29T02:10:29.031Z,5.65
2019-03-29T02:13:16.883Z,5.68
2019-03-29T02:16:04.829Z,5.66
2019-03-29T02:18:52.745Z,5.65
2019-03-29T02:21:41.099Z,5.68
2019-03-29T02:24:28.948Z,5.66
2019-03-29T02:27:17.135Z,5.50
2019-03-29T02:30:05.692Z,5.50
2019-03-29T02:32:53.371Z,5.57
2019-03-29T02:35:41.840Z,5.56
2019-03-29T02:38:30.333Z,5.45
2019-03-29T02:41:19.243Z,5.29
2019-03-29T02:44:07.932Z,5.41
2019-03-29T02:46:56.368Z,5.41
2019-03-29T02:49:44.656Z,5.35
2019-03-29T02:52:32.604Z,5.28
2019-03-29T02:55:20.584Z,5.13
2019-03-29T02:58:08.584Z,5.31
2019-03-29T03:00:56.793Z,5.19
2019-03-29T03:03:45.253Z,5.26
2019-03-29T03:06:32.999Z,5.25
2019-03-29T03:09:21.246Z,5.11
2019-03-29T03:12:09.408Z,5.23
2019-03-29T03:14:57.630Z,5.17
2019-03-29T03:17:45.612Z,5.27
2019-03-29T03:20:33.629Z,5.28
2019-03-29T03:23:21.767Z,5.23
2019-03-29T03:26:10.129Z,5.12
2019-03-29T03:28:58.242Z,5.04
2019-03-29T03:31:46.538Z,5.08
2019-03-29T03:34:34.862Z,5.13
2019-03-29T03:37:23.132Z,5.06
2019-03-29T03:40:11.375Z,5.02
2019-03-29T03:42:59.608Z,4.97
2019-03-29T03:45:47.552Z,5.11
2019-03-29T03:48:35.382Z,5.06
2019-03-29T03:51:23.392Z,5.07
2019-03-29T03:54:11.765Z,4.97
2019-03-29T03:57:00.452Z,5.00
2019-03-29T03:59:49.780Z,4.89
2019-03-29T04:02:37.788Z,4.90
2019-03-29T04:05:25.695Z,4.85
2019-03-29T04:08:13.705Z,4.88
2019-03-29T04:11:01.863Z,4.79
2019-03-29T04:13:49.863Z,4.86
2019-03-29T04:16:37.996Z,4.76
2019-03-29T04:19:26.067Z,4.77
2019-03-29T04:22:14.109Z,4.72
2019-03-29T04:25:01.768Z,4.77
2019-03-29T04:27:49.410Z,4.74
2019-03-29T04:30:37.248Z,4.70
2019-03-29T04:33:25.234Z,4.72
2019-03-29T04:36:12.834Z,4.60
2019-03-29T04:39:00.381Z,4.69
2019-03-29T04:41:48.337Z,4.70
2019-03-29T04:44:36.444Z,4.75
2019-03-29T04:47:24.635Z,4.74
2019-03-29T04:50:12.712Z,4.71
2019-03-29T04:53:00.826Z,4.63
2019-03-29T04:55:49.044Z,4.70
2019-03-29T04:58:37.577Z,4.60
2019-03-29T05:01:25.835Z,4.56
2019-03-29T05:04:13.731Z,4.58
2019-03-29T05:07:01.925Z,4.45
2019-03-29T05:09:49.993Z,4.50
2019-03-29T05:12:38.303Z,4.58
2019-03-29T05:15:26.475Z,4.55
2019-03-29T05:18:14.307Z,4.56
2019-03-29T05:21:02.549Z,4.54
2019-03-29T05:23:51.193Z,4.53
2019-03-29T05:26:39.227Z,4.70
2019-03-29T05:29:27.281Z,4.65
2019-03-29T05:32:15.366Z,4.59
2019-03-29T05:35:03.615Z,4.63
2019-03-29T05:37:51.570Z,4.72
2019-03-29T05:40:39.357Z,4.76
2019-03-29T05:43:27.448Z,4.81
2019-03-29T05:46:15.370Z,4.83
2019-03-29T05:49:03.489Z,5.16
2019-03-29T05:51:52.215Z,5.61
2019-03-29T05:54:40.595Z,6.12
2019-03-29T05:57:28.518Z,6.84
2019-03-29T06:00:19.310Z,7.28
2019-03-29T06:03:09.997Z,7.21
2019-03-29T06:05:57.108Z,7.25
2019-03-29T06:08:45.312Z,7.33
2019-03-29T06:11:33.612Z,7.52
2019-03-29T06:14:21.900Z,7.89
2019-03-29T06:17:10.084Z,7.93
2019-03-29T06:19:58.219Z,7.84
2019-03-29T06:22:46.356Z,8.20
2019-03-29T06:25:35.087Z,9.21
2019-03-29T06:28:29.775Z,9.78
2019-03-29T06:31:16.623Z,9.17
2019-03-29T06:34:04.755Z,9.16
2019-03-29T06:36:53.477Z,9.34
2019-03-29T06:39:41.336Z,9.49
2019-03-29T06:42:29.203Z,9.37
2019-03-29T06:45:17.225Z,9.51
2019-03-29T06:48:05.581Z,9.51
2019-03-29T06:50:54.110Z,10.34
2019-03-29T06:53:42.368Z,10.56
2019-03-29T06:56:30.408Z,10.53
2019-03-29T06:59:18.305Z,10.74
2019-03-29T07:02:06.197Z,10.79
2019-03-29T07:04:54.471Z,11.73
2019-03-29T07:07:44.535Z,12.82
2019-03-29T07:10:32.616Z,12.56
2019-03-29T07:13:20.707Z,13.08
2019-03-29T07:16:09.718Z,13.54
2019-03-29T07:18:57.551Z,13.49
2019-03-29T07:21:45.423Z,14.08
2019-03-29T07:24:33.908Z,15.59
2019-03-29T07:27:22.019Z,15.68
2019-03-29T07:30:10.406Z,15.05
2019-03-29T07:32:58.255Z,14.91
2019-03-29T07:35:46.331Z,14.39
2019-03-29T07:38:34.576Z,14.93
2019-03-29T07:41:31.630Z,14.72
2019-03-29T07:44:12.102Z,14.77
2019-03-29T07:47:00.227Z,15.13
2019-03-29T07:49:48.458Z,15.27
2019-03-29T07:52:36.221Z,15.25
2019-03-29T07:55:24.224Z,14.85
2019-03-29T07:58:11.943Z,14.82
2019-03-29T08:00:59.646Z,15.09
2019-03-29T08:03:51.231Z,14.79
2019-03-29T08:06:39.075Z,14.64
2019-03-29T08:09:27.406Z,15.13
2019-03-29T08:12:16.178Z,15.35
2019-03-29T08:15:04.785Z,14.99
2019-03-29T08:17:52.771Z,14.63
2019-03-29T08:20:44.111Z,14.48
2019-03-29T08:23:30.694Z,14.71
2019-03-29T08:26:19.048Z,14.47
2019-03-29T08:29:07.375Z,14.11
2019-03-29T08:31:55.867Z,14.27
2019-03-29T08:34:43.865Z,14.07
2019-03-29T08:37:31.997Z,13.49
2019-03-29T08:40:19.917Z,13.46
2019-03-29T08:43:08.317Z,13.73
2019-03-29T08:45:57.777Z,13.58
2019-03-29T08:48:46.647Z,13.70
2019-03-29T08:51:34.891Z,13.50
2019-03-29T08:54:23.068Z,13.50
2019-03-29T08:57:11.284Z,13.31
2019-03-29T08:59:58.939Z,12.53
2019-03-29T09:02:46.986Z,12.00
2019-03-29T09:05:35.225Z,11.61
2019-03-29T09:08:23.726Z,11.71
2019-03-29T09:11:11.603Z,11.75
2019-03-29T09:13:59.512Z,11.55
2019-03-29T09:16:47.612Z,11.54
2019-03-29T09:19:35.316Z,11.61
2019-03-29T09:22:23.053Z,11.69
2019-03-29T09:25:11.464Z,11.85
2019-03-29T09:27:59.464Z,12.00
2019-03-29T09:30:47.675Z,11.78
2019-03-29T09:33:36.011Z,11.58
2019-03-29T09:36:24.231Z,11.48
2019-03-29T09:39:12.394Z,11.63
2019-03-29T09:42:00.725Z,11.62
2019-03-29T09:44:48.918Z,11.79
2019-03-29T09:47:40.516Z,11.67
2019-03-29T09:50:27.225Z,11.82
2019-03-29T09:53:15.431Z,12.12
2019-03-29T09:56:03.455Z,12.13
2019-03-29T09:58:51.569Z,12.23
2019-03-29T10:01:39.603Z,12.23
2019-03-29T10:04:27.841Z,12.50
2019-03-29T10:07:16.311Z,12.13
2019-03-29T10:10:04.815Z,12.36
2019-03-29T10:12:52.900Z,12.43
2019-03-29T10:15:41.003Z,12.48
2019-03-29T10:18:28.861Z,12.57
2019-03-29T10:21:17.664Z,12.84
2019-03-29T10:24:05.941Z,13.17
2019-03-29T10:26:53.883Z,13.17
2019-03-29T10:29:42.252Z,13.03
2019-03-29T10:32:30.413Z,13.19
2019-03-29T10:35:18.713Z,13.49
2019-03-29T10:38:06.703Z,13.67
2019-03-29T10:40:56.133Z,13.60
2019-03-29T10:43:44.879Z,13.67
2019-03-29T10:46:33.109Z,13.38
2019-03-29T10:49:21.384Z,13.38
2019-03-29T10:52:09.844Z,13.47
2019-03-29T10:54:58.424Z,13.45
2019-03-29T10:57:46.844Z,13.21
2019-03-29T11:00:36.776Z,13.20
2019-03-29T11:03:24.655Z,13.42
2019-03-29T11:06:12.693Z,13.80
2019-03-29T11:09:00.650Z,14.00
2019-03-29T11:11:49.384Z,14.13
2019-03-29T11:14:37.843Z,14.20
2019-03-29T11:17:25.824Z,13.79
2019-03-29T11:20:14.058Z,13.83
2019-03-29T11:23:02.047Z,13.74
2019-03-29T11:25:50.276Z,13.85
2019-03-29T11:28:38.391Z,14.13
2019-03-29T11:31:27.214Z,14.27
2019-03-29T11:34:15.354Z,14.52
2019-03-29T11:37:03.738Z,14.62
2019-03-29T11:39:51.908Z,14.62
2019-03-29T11:42:39.660Z,14.49
2019-03-29T11:45:27.430Z,14.62
2019-03-29T11:48:15.615Z,14.79
2019-03-29T11:51:03.508Z,14.86
2019-03-29T11:53:51.559Z,14.75
2019-03-29T11:56:39.534Z,14.84
2019-03-29T11:59:28.019Z,14.90
2019-03-29T12:02:30.136Z,14.98
2019-03-29T12:05:08.419Z,14.98
2019-03-29T12:07:56.360Z,14.99
2019-03-29T12:10:44.729Z,14.78
2019-03-29T12:13:40.838Z,15.03
2019-03-29T12:16:23.307Z,15.22
2019-03-29T12:19:11.170Z,15.42
2019-03-29T12:21:59.206Z,15.65
2019-03-29T12:24:47.371Z,15.59
2019-03-29T12:27:35.540Z,15.84
2019-03-29T12:30:31.692Z,15.95
2019-03-29T12:33:13.577Z,16.08
2019-03-29T12:36:01.707Z,16.05
2019-03-29T12:38:49.981Z,15.77
2019-03-29T12:41:37.835Z,15.91
2019-03-29T12:44:25.648Z,15.95
2019-03-29T12:47:13.664Z,16.11
2019-03-29T12:50:01.682Z,15.96
2019-03-29T12:52:50.319Z,16.04
2019-03-29T12:55:39.277Z,16.02
2019-03-29T12:58:26.999Z,16.21
2019-03-29T13:01:14.975Z,16.31
2019-03-29T13:04:02.989Z,16.43
2019-03-29T13:06:50.609Z,16.54
2019-03-29T13:09:39.913Z,16.59
2019-03-29T13:12:27.842Z,16.22
2019-03-29T13:15:15.601Z,16.13
2019-03-29T13:18:03.682Z,16.32
2019-03-29T13:20:51.654Z,16.12
2019-03-29T13:23:39.718Z,16.05
2019-03-29T13:26:28.240Z,16.05
2019-03-29T13:29:16.281Z,16.21
2019-03-29T13:32:04.004Z,16.15
2019-03-29T13:34:52.261Z,16.47
2019-03-29T13:37:40.267Z,16.52
2019-03-29T13:40:28.725Z,16.64
2019-03-29T13:43:16.926Z,16.68
2019-03-29T13:46:05.007Z,16.67
2019-03-29T13:48:52.977Z,16.76
2019-03-29T13:51:41.036Z,16.55
2019-03-29T13:54:29.073Z,16.47
2019-03-29T13:57:17.402Z,16.33
2019-03-29T14:00:09.010Z,16.48
2019-03-29T14:02:57.035Z,16.59
2019-03-29T14:05:45.522Z,16.57
2019-03-29T14:08:33.466Z,16.65
2019-03-29T14:11:21.493Z,16.16
2019-03-29T14:14:10.881Z,16.33
2019-03-29T14:16:59.047Z,16.44
2019-03-29T14:19:47.615Z,16.25
2019-03-29T14:22:36.070Z,16.47
2019-03-29T14:25:23.821Z,16.56
2019-03-29T14:28:11.745Z,16.39
2019-03-29T14:30:59.751Z,16.47
2019-03-29T14:33:47.706Z,16.52
2019-03-29T14:36:35.299Z,16.52
2019-03-29T14:39:23.526Z,16.49
2019-03-29T14:42:12.833Z,16.39
2019-03-29T14:45:01.366Z,16.43
2019-03-29T14:47:49.539Z,16.37
2019-03-29T14:50:37.658Z,16.34
2019-03-29T14:53:25.560Z,16.48
2019-03-29T14:56:13.314Z,16.50
2019-03-29T14:59:01.705Z,16.58
2019-03-29T15:01:50.530Z,16.43
2019-03-29T15:04:38.633Z,16.52
2019-03-29T15:07:26.663Z,16.45
2019-03-29T15:10:26.144Z,16.26
2019-03-29T15:13:14.859Z,16.23
2019-03-29T15:16:02.433Z,16.27
2019-03-29T15:18:50.380Z,16.23
2019-03-29T15:21:38.714Z,16.16
2019-03-29T15:24:27.257Z,16.22
2019-03-29T15:27:15.405Z,16.21
2019-03-29T15:30:03.925Z,16.19
2019-03-29T15:32:52.246Z,16.20
2019-03-29T15:35:40.372Z,16.20
2019-03-29T15:38:28.546Z,16.08
2019-03-29T15:41:16.545Z,15.93
2019-03-29T15:44:04.877Z,16.12
2019-03-29T15:46:52.497Z,16.03
2019-03-29T15:49:40.821Z,16.07
2019-03-29T15:52:28.718Z,16.07
2019-03-29T15:55:16.801Z,15.96
2019-03-29T15:58:05.046Z,15.92
2019-03-29T16:00:53.074Z,15.98
2019-03-29T16:03:41.147Z,15.95
2019-03-29T16:06:29.388Z,15.94
2019-03-29T16:09:17.332Z,15.84
2019-03-29T16:12:05.556Z,15.74
2019-03-29T16:14:53.645Z,15.74
2019-03-29T16:17:41.534Z,15.85
2019-03-29T16:20:29.613Z,15.69
2019-03-29T16:23:17.666Z,15.77
2019-03-29T16:26:05.654Z,15.79
2019-03-29T16:28:53.529Z,15.67
2019-03-29T16:31:41.514Z,15.69
2019-03-29T16:34:30.002Z,15.62
2019-03-29T16:37:18.527Z,15.56
2019-03-29T16:40:06.691Z,15.45
2019-03-29T16:42:54.642Z,15.55
2019-03-29T16:45:48.040Z,15.56
2019-03-29T16:48:32.486Z,15.28
2019-03-29T16:51:20.351Z,15.48
2019-03-29T16:54:08.606Z,15.28
2019-03-29T16:56:56.923Z,15.37
2019-03-29T16:59:45.177Z,15.21
2019-03-29T17:02:33.308Z,15.33
2019-03-29T17:05:21.489Z,15.22
2019-03-29T17:08:09.687Z,15.20
2019-03-29T17:10:57.769Z,15.14
2019-03-29T17:13:45.985Z,15.01
2019-03-29T17:16:34.072Z,14.95
2019-03-29T17:19:21.683Z,15.02
2019-03-29T17:22:09.633Z,14.94
2019-03-29T17:24:57.939Z,14.90
2019-03-29T17:27:45.772Z,14.72
2019-03-29T17:30:42.102Z,14.69
2019-03-29T17:33:30.347Z,14.77
2019-03-29T17:36:18.637Z,14.57
2019-03-29T17:39:08.110Z,14.63
2019-03-29T17:41:56.151Z,14.56
2019-03-29T17:44:44.605Z,14.28
2019-03-29T17:47:33.021Z,14.28
2019-03-29T17:50:21.510Z,14.21
2019-03-29T17:53:10.196Z,13.98
2019-03-29T17:55:58.405Z,14.10
2019-03-29T17:58:46.662Z,14.02
2019-03-29T18:01:34.765Z,13.73
2019-03-29T18:04:23.636Z,13.58
2019-03-29T18:07:11.577Z,13.71
2019-03-29T18:10:00.842Z,13.50
2019-03-29T18:12:48.838Z,13.51
2019-03-29T18:15:44.468Z,13.26
2019-03-29T18:18:32.726Z,13.38
2019-03-29T18:21:20.782Z,13.16
2019-03-29T18:24:08.683Z,13.04
2019-03-29T18:26:56.697Z,13.07
2019-03-29T18:29:44.583Z,12.97
2019-03-29T18:32:32.943Z,13.10
2019-03-29T18:35:21.245Z,13.06
2019-03-29T18:38:09.857Z,13.05
2019-03-29T18:40:57.879Z,12.94
2019-03-29T18:43:46.117Z,13.02
2019-03-29T18:46:44.535Z,12.90
2019-03-29T18:49:23.685Z,12.88
2019-03-29T18:52:11.513Z,12.90
2019-03-29T18:54:59.445Z,12.86
2019-03-29T18:57:47.441Z,12.99
2019-03-29T19:00:36.383Z,12.88
2019-03-29T19:03:24.227Z,12.88
2019-03-29T19:06:13.067Z,12.76
2019-03-29T19:09:01.381Z,12.70
2019-03-29T19:11:49.767Z,12.65
2019-03-29T19:14:37.454Z,12.59
2019-03-29T19:17:25.711Z,12.53
2019-03-29T19:20:26.687Z,12.46
2019-03-29T19:23:04.250Z,12.47
2019-03-29T19:25:52.237Z,12.51
2019-03-29T19:28:40.424Z,12.56
2019-03-29T19:31:29.121Z,12.44
2019-03-29T19:34:17.285Z,12.39
2019-03-29T19:37:05.394Z,12.09
2019-03-29T19:39:53.491Z,12.31
2019-03-29T19:42:41.727Z,12.15
2019-03-29T19:45:30.191Z,12.12
2019-03-29T19:48:18.224Z,12.05
2019-03-29T19:51:05.835Z,12.27
2019-03-29T19:54:06.697Z,12.28
2019-03-29T19:56:43.737Z,12.17
2019-03-29T19:59:31.594Z,12.14
2019-03-29T20:02:19.454Z,12.00
2019-03-29T20:05:13.351Z,11.84
2019-03-29T20:08:01.922Z,11.88
2019-03-29T20:10:49.982Z,11.78
2019-03-29T20:13:37.666Z,11.78
2019-03-29T20:16:25.354Z,11.79
2019-03-29T20:19:13.231Z,11.61
2019-03-29T20:22:01.641Z,11.54
2019-03-29T20:24:50.344Z,11.53
2019-03-29T20:27:38.068Z,11.41
2019-03-29T20:30:26.568Z,11.38
2019-03-29T20:33:14.716Z,11.17
2019-03-29T20:36:02.696Z,11.07
2019-03-29T20:38:50.635Z,11.02
2019-03-29T20:41:38.873Z,10.88
2019-03-29T20:44:26.936Z,10.78
2019-03-29T20:47:14.822Z,10.72
2019-03-29T20:50:02.817Z,10.47
2019-03-29T20:52:51.081Z,10.46
2019-03-29T20:55:39.455Z,10.41
2019-03-29T20:58:27.421Z,10.41
2019-03-29T21:01:15.575Z,10.41
2019-03-29T21:04:03.675Z,10.38
2019-03-29T21:06:51.687Z,10.29
2019-03-29T21:09:39.698Z,10.26
2019-03-29T21:12:27.591Z,10.23
2019-03-29T21:15:15.612Z,10.16
2019-03-29T21:18:03.511Z,10.13
2019-03-29T21:20:51.756Z,10.09
2019-03-29T21:23:39.406Z,9.89
2019-03-29T21:26:27.631Z,9.96
2019-03-29T21:29:16.012Z,9.80
2019-03-29T21:32:04.056Z,9.70
2019-03-29T21:34:51.971Z,9.85
2019-03-29T21:37:39.898Z,9.81
2019-03-29T21:40:27.857Z,9.94
2019-03-29T21:43:17.865Z,9.76
2019-03-29T21:46:06.009Z,9.72
2019-03-29T21:48:54.074Z,9.56
2019-03-29T21:51:41.879Z,9.44
2019-03-29T21:54:30.537Z,9.46
2019-03-29T21:57:19.284Z,9.56
2019-03-29T22:00:08.936Z,9.57
2019-03-29T22:02:59.856Z,9.52
2019-03-29T22:05:48.038Z,9.53
2019-03-29T22:08:36.690Z,9.48
2019-03-29T22:11:25.337Z,9.49
2019-03-29T22:14:13.207Z,9.38
2019-03-29T22:17:01.104Z,9.23
2019-03-29T22:19:48.907Z,9.24
2019-03-29T22:22:38.221Z,9.21
2019-03-29T22:25:26.558Z,9.09
2019-03-29T22:28:15.438Z,9.17
2019-03-29T22:31:03.556Z,9.15
2019-03-29T22:33:51.834Z,9.38
2019-03-29T22:36:40.286Z,9.07
2019-03-29T22:39:28.530Z,9.01
2019-03-29T22:42:16.399Z,8.88
2019-03-29T22:45:04.726Z,8.77
2019-03-29T22:47:52.599Z,8.70
2019-03-29T22:50:40.902Z,8.73
2019-03-29T22:53:36.395Z,8.68
2019-03-29T22:56:24.569Z,8.61
2019-03-29T22:59:19.435Z,8.70
2019-03-29T23:02:11.184Z,8.62
2019-03-29T23:05:04.230Z,8.53
2019-03-29T23:07:52.344Z,8.61
2019-03-29T23:10:40.302Z,8.54
2019-03-29T23:13:28.229Z,8.55
2019-03-29T23:16:16.538Z,8.53
2019-03-29T23:19:06.822Z,8.43
2019-03-29T23:21:54.304Z,8.59
2019-03-29T23:24:42.535Z,8.58
2019-03-29T23:27:30.102Z,8.73
2019-03-29T23:30:18.684Z,8.69
2019-03-29T23:33:06.903Z,8.70
2019-03-29T23:35:54.766Z,8.56
2019-03-29T23:38:42.835Z,8.49
2019-03-29T23:41:31.081Z,8.57
2019-03-29T23:44:19.182Z,8.49
2019-03-29T23:47:07.174Z,8.38
2019-03-29T23:49:55.402Z,8.32
2019-03-29T23:52:43.498Z,8.12
2019-03-29T23:55:31.707Z,8.02
2019-03-29T23:58:19.921Z,7.93
